sensor_id;sensor_type;location;lat;lon;timestamp;pressure;altitude;pressure_sealevel;temperature;humidity
52719;BME280;38616;42.140;24.760;2022-10-16T00:01:18;100304.84;;;13.96;54.89
52719;BME280;38616;42.140;24.760;2022-10-16T00:03:44;100297.31;;;13.83;55.48
52719;BME280;38616;42.140;24.760;2022-10-16T00:06:10;100313.06;;;13.96;55.08
52719;BME280;38616;42.140;24.760;2022-10-16T00:08:37;100311.56;;;13.74;55.84
52719;BME280;38616;42.140;24.760;2022-10-16T00:11:06;100306.44;;;13.68;56.17
52719;BME280;38616;42.140;24.760;2022-10-16T00:13:33;100310.84;;;13.64;56.36
52719;BME280;38616;42.140;24.760;2022-10-16T00:16:00;100310.59;;;13.55;56.65
52719;BME280;38616;42.140;24.760;2022-10-16T00:18:27;100318.16;;;13.68;56.30
52719;BME280;38616;42.140;24.760;2022-10-16T00:20:53;100312.69;;;13.68;56.54
52719;BME280;38616;42.140;24.760;2022-10-16T00:23:19;100318.66;;;13.76;56.57
52719;BME280;38616;42.140;24.760;2022-10-16T00:25:45;100317.75;;;13.85;55.87
52719;BME280;38616;42.140;24.760;2022-10-16T00:28:10;100315.75;;;14.01;55.48
52719;BME280;38616;42.140;24.760;2022-10-16T00:30:40;100319.72;;;13.80;55.85
52719;BME280;38616;42.140;24.760;2022-10-16T00:33:05;100320.94;;;13.63;56.33
52719;BME280;38616;42.140;24.760;2022-10-16T00:35:31;100314.06;;;13.21;57.18
52719;BME280;38616;42.140;24.760;2022-10-16T00:37:56;100306.53;;;13.52;57.12
52719;BME280;38616;42.140;24.760;2022-10-16T00:40:21;100316.53;;;13.67;56.33
52719;BME280;38616;42.140;24.760;2022-10-16T00:42:47;100322.28;;;13.66;56.33
52719;BME280;38616;42.140;24.760;2022-10-16T00:45:12;100316.88;;;13.61;56.57
52719;BME280;38616;42.140;24.760;2022-10-16T00:47:43;100326.19;;;13.54;56.74
52719;BME280;38616;42.140;24.760;2022-10-16T00:50:33;100330.72;;;13.69;56.51
52719;BME280;38616;42.140;24.760;2022-10-16T00:53:00;100331.78;;;13.18;57.56
52719;BME280;38616;42.140;24.760;2022-10-16T00:55:27;100333.06;;;12.70;58.89
52719;BME280;38616;42.140;24.760;2022-10-16T00:57:55;100332.81;;;11.89;61.62
52719;BME280;38616;42.140;24.760;2022-10-16T01:00:26;100346.97;;;11.86;61.85
52719;BME280;38616;42.140;24.760;2022-10-16T01:02:57;100350.25;;;11.93;61.49
52719;BME280;38616;42.140;24.760;2022-10-16T01:05:48;100360.81;;;11.69;62.25
52719;BME280;38616;42.140;24.760;2022-10-16T01:08:16;100360.00;;;11.68;62.79
52719;BME280;38616;42.140;24.760;2022-10-16T01:11:22;100371.63;;;11.43;63.56
52719;BME280;38616;42.140;24.760;2022-10-16T01:13:55;100367.81;;;11.44;63.80
52719;BME280;38616;42.140;24.760;2022-10-16T01:16:35;100371.38;;;11.40;63.64
52719;BME280;38616;42.140;24.760;2022-10-16T01:19:13;100376.69;;;11.14;64.55
52719;BME280;38616;42.140;24.760;2022-10-16T01:21:43;100356.63;;;11.25;64.16
52719;BME280;38616;42.140;24.760;2022-10-16T01:30:10;100371.25;;;12.39;60.66
52719;BME280;38616;42.140;24.760;2022-10-16T01:37:52;100379.13;;;12.00;61.61
52719;BME280;38616;42.140;24.760;2022-10-16T01:40:19;100383.50;;;12.06;61.37
52719;BME280;38616;42.140;24.760;2022-10-16T01:42:52;100384.06;;;12.34;60.69
52719;BME280;38616;42.140;24.760;2022-10-16T01:45:21;100388.94;;;12.42;60.09
52719;BME280;38616;42.140;24.760;2022-10-16T01:47:48;100389.41;;;11.82;61.62
52719;BME280;38616;42.140;24.760;2022-10-16T01:50:14;100386.72;;;11.87;61.83
52719;BME280;38616;42.140;24.760;2022-10-16T01:52:45;100403.00;;;11.66;62.18
52719;BME280;38616;42.140;24.760;2022-10-16T01:55:14;100392.47;;;12.01;61.08
52719;BME280;38616;42.140;24.760;2022-10-16T01:57:44;100395.75;;;12.24;60.42
52719;BME280;38616;42.140;24.760;2022-10-16T02:00:12;100392.75;;;12.41;60.27
52719;BME280;38616;42.140;24.760;2022-10-16T02:02:41;100399.59;;;12.33;60.09
52719;BME280;38616;42.140;24.760;2022-10-16T02:05:20;100393.59;;;12.41;59.78
52719;BME280;38616;42.140;24.760;2022-10-16T02:07:48;100393.28;;;12.59;59.11
52719;BME280;38616;42.140;24.760;2022-10-16T02:10:13;100385.97;;;12.59;59.05
52719;BME280;38616;42.140;24.760;2022-10-16T02:12:44;100386.78;;;12.29;60.01
52719;BME280;38616;42.140;24.760;2022-10-16T02:15:10;100391.13;;;12.09;60.54
52719;BME280;38616;42.140;24.760;2022-10-16T02:17:36;100394.97;;;12.34;59.94
52719;BME280;38616;42.140;24.760;2022-10-16T02:20:02;100393.31;;;12.17;60.24
52719;BME280;38616;42.140;24.760;2022-10-16T02:22:32;100396.28;;;12.10;60.42
52719;BME280;38616;42.140;24.760;2022-10-16T02:27:50;100398.50;;;12.24;60.06
52719;BME280;38616;42.140;24.760;2022-10-16T02:30:48;100395.22;;;12.17;60.15
52719;BME280;38616;42.140;24.760;2022-10-16T02:33:16;100394.94;;;12.03;60.73
52719;BME280;38616;42.140;24.760;2022-10-16T02:35:45;100405.50;;;11.99;61.02
52719;BME280;38616;42.140;24.760;2022-10-16T02:38:12;100406.66;;;12.19;60.16
52719;BME280;38616;42.140;24.760;2022-10-16T02:40:39;100415.13;;;12.33;60.21
52719;BME280;38616;42.140;24.760;2022-10-16T02:43:05;100416.75;;;12.23;60.34
52719;BME280;38616;42.140;24.760;2022-10-16T02:45:30;100416.47;;;12.15;60.27
52719;BME280;38616;42.140;24.760;2022-10-16T02:47:56;100413.19;;;12.18;60.33
52719;BME280;38616;42.140;24.760;2022-10-16T02:50:21;100418.41;;;12.30;59.89
52719;BME280;38616;42.140;24.760;2022-10-16T02:52:47;100417.31;;;12.31;60.13
52719;BME280;38616;42.140;24.760;2022-10-16T02:55:13;100419.75;;;12.27;59.72
52719;BME280;38616;42.140;24.760;2022-10-16T02:57:39;100422.72;;;12.05;60.74
52719;BME280;38616;42.140;24.760;2022-10-16T03:00:07;100423.84;;;12.35;59.92
52719;BME280;38616;42.140;24.760;2022-10-16T03:02:33;100422.75;;;12.31;60.03
52719;BME280;38616;42.140;24.760;2022-10-16T03:04:58;100428.47;;;12.24;59.91
52719;BME280;38616;42.140;24.760;2022-10-16T03:07:24;100434.75;;;12.30;59.99
52719;BME280;38616;42.140;24.760;2022-10-16T03:09:49;100434.47;;;12.41;59.80
52719;BME280;38616;42.140;24.760;2022-10-16T03:12:15;100432.84;;;12.56;59.42
52719;BME280;38616;42.140;24.760;2022-10-16T03:14:40;100432.00;;;12.50;59.77
52719;BME280;38616;42.140;24.760;2022-10-16T03:17:06;100431.19;;;12.50;59.52
52719;BME280;38616;42.140;24.760;2022-10-16T03:19:31;100432.00;;;12.50;59.66
52719;BME280;38616;42.140;24.760;2022-10-16T03:21:57;100439.63;;;12.48;59.48
52719;BME280;38616;42.140;24.760;2022-10-16T03:24:22;100436.38;;;12.56;59.11
52719;BME280;38616;42.140;24.760;2022-10-16T03:26:48;100442.34;;;12.43;59.73
52719;BME280;38616;42.140;24.760;2022-10-16T03:29:13;100444.53;;;12.46;59.60
52719;BME280;38616;42.140;24.760;2022-10-16T03:31:38;100451.63;;;12.32;60.17
52719;BME280;38616;42.140;24.760;2022-10-16T03:34:04;100438.28;;;12.30;60.09
52719;BME280;38616;42.140;24.760;2022-10-16T03:36:29;100446.44;;;12.30;60.25
52719;BME280;38616;42.140;24.760;2022-10-16T03:38:54;100453.00;;;12.34;60.41
52719;BME280;38616;42.140;24.760;2022-10-16T03:41:20;100442.91;;;12.35;60.55
52719;BME280;38616;42.140;24.760;2022-10-16T03:43:45;100445.63;;;12.19;60.87
52719;BME280;38616;42.140;24.760;2022-10-16T03:46:11;100451.06;;;12.09;61.31
52719;BME280;38616;42.140;24.760;2022-10-16T03:48:36;100446.91;;;11.91;62.07
52719;BME280;38616;42.140;24.760;2022-10-16T03:51:02;100455.41;;;12.10;61.90
52719;BME280;38616;42.140;24.760;2022-10-16T03:53:27;100454.88;;;12.13;61.64
52719;BME280;38616;42.140;24.760;2022-10-16T03:55:53;100461.94;;;12.09;61.69
52719;BME280;38616;42.140;24.760;2022-10-16T03:58:18;100466.56;;;12.08;61.42
52719;BME280;38616;42.140;24.760;2022-10-16T04:00:45;100467.94;;;12.06;61.78
52719;BME280;38616;42.140;24.760;2022-10-16T04:03:12;100467.59;;;11.87;62.25
52719;BME280;38616;42.140;24.760;2022-10-16T04:05:37;100467.31;;;11.93;62.03
52719;BME280;38616;42.140;24.760;2022-10-16T04:08:03;100468.69;;;11.91;62.29
52719;BME280;38616;42.140;24.760;2022-10-16T04:10:29;100467.84;;;11.90;62.27
52719;BME280;38616;42.140;24.760;2022-10-16T04:12:54;100460.06;;;11.51;63.18
52719;BME280;38616;42.140;24.760;2022-10-16T04:15:22;100465.38;;;11.78;62.61
52719;BME280;38616;42.140;24.760;2022-10-16T04:17:47;100449.31;;;11.82;62.37
52719;BME280;38616;42.140;24.760;2022-10-16T04:20:13;100469.28;;;12.03;61.36
52719;BME280;38616;42.140;24.760;2022-10-16T04:22:38;100450.75;;;11.31;63.33
52719;BME280;38616;42.140;24.760;2022-10-16T04:25:04;100471.00;;;11.03;64.12
52719;BME280;38616;42.140;24.760;2022-10-16T04:27:30;100473.13;;;10.63;65.36
52719;BME280;38616;42.140;24.760;2022-10-16T04:29:57;100467.25;;;10.76;65.10
52719;BME280;38616;42.140;24.760;2022-10-16T04:32:22;100475.97;;;10.78;65.20
52719;BME280;38616;42.140;24.760;2022-10-16T04:34:48;100481.47;;;10.89;64.88
52719;BME280;38616;42.140;24.760;2022-10-16T04:37:13;100478.84;;;10.99;64.57
52719;BME280;38616;42.140;24.760;2022-10-16T04:39:39;100467.13;;;10.93;64.36
52719;BME280;38616;42.140;24.760;2022-10-16T04:42:04;100472.78;;;10.87;65.08
52719;BME280;38616;42.140;24.760;2022-10-16T04:44:30;100477.28;;;11.08;63.85
52719;BME280;38616;42.140;24.760;2022-10-16T04:46:55;100477.13;;;10.88;64.75
52719;BME280;38616;42.140;24.760;2022-10-16T04:49:20;100487.94;;;11.20;64.18
52719;BME280;38616;42.140;24.760;2022-10-16T04:51:46;100468.69;;;11.27;63.69
52719;BME280;38616;42.140;24.760;2022-10-16T04:54:11;100480.69;;;11.31;63.22
52719;BME280;38616;42.140;24.760;2022-10-16T04:56:37;100488.31;;;11.34;63.30
52719;BME280;38616;42.140;24.760;2022-10-16T04:59:09;100483.16;;;11.38;63.32
52719;BME280;38616;42.140;24.760;2022-10-16T05:01:35;100482.91;;;11.40;63.40
52719;BME280;38616;42.140;24.760;2022-10-16T05:04:00;100493.25;;;11.43;63.16
52719;BME280;38616;42.140;24.760;2022-10-16T05:06:26;100487.47;;;11.34;63.23
52719;BME280;38616;42.140;24.760;2022-10-16T05:08:52;100490.84;;;11.51;63.02
52719;BME280;38616;42.140;24.760;2022-10-16T05:11:17;100496.59;;;11.65;62.51
52719;BME280;38616;42.140;24.760;2022-10-16T05:13:42;100483.81;;;11.61;62.49
52719;BME280;38616;42.140;24.760;2022-10-16T05:16:08;100500.41;;;11.64;62.75
52719;BME280;38616;42.140;24.760;2022-10-16T05:18:33;100505.84;;;11.64;62.92
52719;BME280;38616;42.140;24.760;2022-10-16T05:20:59;100509.47;;;11.75;62.76
52719;BME280;38616;42.140;24.760;2022-10-16T05:23:24;100515.19;;;11.79;62.78
52719;BME280;38616;42.140;24.760;2022-10-16T05:25:54;100517.41;;;11.87;62.51
52719;BME280;38616;42.140;24.760;2022-10-16T05:28:20;100503.19;;;11.75;62.65
52719;BME280;38616;42.140;24.760;2022-10-16T05:30:45;100519.50;;;11.75;62.74
52719;BME280;38616;42.140;24.760;2022-10-16T05:33:11;100521.25;;;11.96;62.03
52719;BME280;38616;42.140;24.760;2022-10-16T05:35:36;100525.66;;;12.03;61.83
52719;BME280;38616;42.140;24.760;2022-10-16T05:38:02;100530.25;;;12.02;62.13
52719;BME280;38616;42.140;24.760;2022-10-16T05:40:27;100535.47;;;12.09;61.31
52719;BME280;38616;42.140;24.760;2022-10-16T05:42:56;100532.47;;;12.10;61.21
52719;BME280;38616;42.140;24.760;2022-10-16T05:45:21;100543.13;;;12.12;61.16
52719;BME280;38616;42.140;24.760;2022-10-16T05:47:47;100548.59;;;12.22;60.95
52719;BME280;38616;42.140;24.760;2022-10-16T05:50:12;100554.00;;;12.12;60.84
52719;BME280;38616;42.140;24.760;2022-10-16T05:52:38;100551.31;;;12.17;60.56
52719;BME280;38616;42.140;24.760;2022-10-16T05:55:03;100560.91;;;12.46;60.25
52719;BME280;38616;42.140;24.760;2022-10-16T05:57:29;100545.09;;;12.37;59.97
52719;BME280;38616;42.140;24.760;2022-10-16T05:59:55;100551.97;;;11.81;60.85
52719;BME280;38616;42.140;24.760;2022-10-16T06:02:20;100560.94;;;11.82;61.37
52719;BME280;38616;42.140;24.760;2022-10-16T06:04:46;100555.47;;;11.77;61.19
52719;BME280;38616;42.140;24.760;2022-10-16T06:07:11;100565.91;;;11.95;60.96
52719;BME280;38616;42.140;24.760;2022-10-16T06:09:37;100561.00;;;11.97;60.56
52719;BME280;38616;42.140;24.760;2022-10-16T06:12:02;100556.97;;;12.05;60.36
52719;BME280;38616;42.140;24.760;2022-10-16T06:14:28;100573.09;;;11.64;60.57
52719;BME280;38616;42.140;24.760;2022-10-16T06:16:53;100579.56;;;11.52;61.69
52719;BME280;38616;42.140;24.760;2022-10-16T06:19:19;100560.34;;;11.75;60.58
52719;BME280;38616;42.140;24.760;2022-10-16T06:21:44;100577.44;;;11.60;60.99
52719;BME280;38616;42.140;24.760;2022-10-16T06:24:10;100581.88;;;11.33;61.56
52719;BME280;38616;42.140;24.760;2022-10-16T06:26:35;100576.75;;;11.04;62.63
52719;BME280;38616;42.140;24.760;2022-10-16T06:29:01;100579.63;;;10.87;63.69
52719;BME280;38616;42.140;24.760;2022-10-16T06:31:28;100578.13;;;11.02;63.55
52719;BME280;38616;42.140;24.760;2022-10-16T06:33:56;100577.66;;;11.15;63.13
52719;BME280;38616;42.140;24.760;2022-10-16T06:36:23;100584.53;;;11.23;63.09
52719;BME280;38616;42.140;24.760;2022-10-16T06:38:49;100592.97;;;11.27;63.07
52719;BME280;38616;42.140;24.760;2022-10-16T06:41:17;100610.13;;;11.65;61.85
52719;BME280;38616;42.140;24.760;2022-10-16T06:43:43;100608.56;;;11.36;62.84
52719;BME280;38616;42.140;24.760;2022-10-16T06:46:12;100599.13;;;11.49;62.50
52719;BME280;38616;42.140;24.760;2022-10-16T06:48:38;100602.66;;;11.45;62.50
52719;BME280;38616;42.140;24.760;2022-10-16T06:51:13;100609.06;;;11.71;62.02
52719;BME280;38616;42.140;24.760;2022-10-16T06:53:41;100603.41;;;11.83;61.99
52719;BME280;38616;42.140;24.760;2022-10-16T06:56:09;100605.50;;;12.19;60.89
52719;BME280;38616;42.140;24.760;2022-10-16T06:58:35;100608.19;;;12.08;60.97
52719;BME280;38616;42.140;24.760;2022-10-16T07:01:00;100606.25;;;12.04;61.12
52719;BME280;38616;42.140;24.760;2022-10-16T07:03:26;100611.75;;;12.09;61.55
52719;BME280;38616;42.140;24.760;2022-10-16T07:05:51;100610.78;;;12.51;60.23
52719;BME280;38616;42.140;24.760;2022-10-16T07:08:17;100615.03;;;12.11;61.08
52719;BME280;38616;42.140;24.760;2022-10-16T07:10:42;100622.25;;;11.90;62.01
52719;BME280;38616;42.140;24.760;2022-10-16T07:13:07;100611.03;;;11.86;61.98
52719;BME280;38616;42.140;24.760;2022-10-16T07:15:33;100615.00;;;12.06;61.92
52719;BME280;38616;42.140;24.760;2022-10-16T07:17:58;100617.28;;;12.30;61.26
52719;BME280;38616;42.140;24.760;2022-10-16T07:20:24;100616.94;;;12.16;61.79
52719;BME280;38616;42.140;24.760;2022-10-16T07:22:49;100624.41;;;12.46;61.32
52719;BME280;38616;42.140;24.760;2022-10-16T07:25:15;100617.81;;;12.37;61.05
52719;BME280;38616;42.140;24.760;2022-10-16T07:27:41;100620.56;;;12.32;61.64
52719;BME280;38616;42.140;24.760;2022-10-16T07:30:06;100609.16;;;12.61;60.95
52719;BME280;38616;42.140;24.760;2022-10-16T07:32:32;100625.22;;;12.47;61.75
52719;BME280;38616;42.140;24.760;2022-10-16T07:34:57;100614.66;;;12.81;60.55
52719;BME280;38616;42.140;24.760;2022-10-16T07:37:23;100614.13;;;13.26;58.98
52719;BME280;38616;42.140;24.760;2022-10-16T07:39:49;100615.78;;;13.37;59.04
52719;BME280;38616;42.140;24.760;2022-10-16T07:42:14;100610.91;;;13.24;58.83
52719;BME280;38616;42.140;24.760;2022-10-16T07:44:40;100609.78;;;13.35;58.58
52719;BME280;38616;42.140;24.760;2022-10-16T07:47:06;100614.69;;;13.28;59.20
52719;BME280;38616;42.140;24.760;2022-10-16T07:49:31;100606.53;;;13.43;58.51
52719;BME280;38616;42.140;24.760;2022-10-16T07:51:57;100599.94;;;13.70;57.88
52719;BME280;38616;42.140;24.760;2022-10-16T07:54:22;100612.97;;;13.94;57.04
52719;BME280;38616;42.140;24.760;2022-10-16T07:56:48;100608.56;;;14.09;57.11
52719;BME280;38616;42.140;24.760;2022-10-16T07:59:13;100605.53;;;14.10;56.54
52719;BME280;38616;42.140;24.760;2022-10-16T08:01:39;100611.03;;;14.05;56.83
52719;BME280;38616;42.140;24.760;2022-10-16T08:04:05;100617.88;;;13.97;57.26
52719;BME280;38616;42.140;24.760;2022-10-16T08:06:35;100622.00;;;13.79;57.22
52719;BME280;38616;42.140;24.760;2022-10-16T08:09:00;100611.97;;;13.64;57.76
52719;BME280;38616;42.140;24.760;2022-10-16T08:11:26;100607.47;;;14.04;56.99
52719;BME280;38616;42.140;24.760;2022-10-16T08:13:51;100607.97;;;14.17;56.58
52719;BME280;38616;42.140;24.760;2022-10-16T08:16:17;100600.41;;;13.93;57.61
52719;BME280;38616;42.140;24.760;2022-10-16T08:18:43;100608.06;;;13.96;57.50
52719;BME280;38616;42.140;24.760;2022-10-16T08:21:16;100605.78;;;14.14;57.28
52719;BME280;38616;42.140;24.760;2022-10-16T08:23:42;100606.25;;;14.31;56.21
52719;BME280;38616;42.140;24.760;2022-10-16T08:26:09;100608.94;;;14.42;56.15
52719;BME280;38616;42.140;24.760;2022-10-16T08:28:35;100598.28;;;14.45;55.81
52719;BME280;38616;42.140;24.760;2022-10-16T08:31:15;100604.00;;;14.44;55.89
52719;BME280;38616;42.140;24.760;2022-10-16T08:33:42;100601.13;;;14.75;54.86
52719;BME280;38616;42.140;24.760;2022-10-16T08:36:09;100605.47;;;15.16;54.02
52719;BME280;38616;42.140;24.760;2022-10-16T08:38:35;100604.38;;;15.46;53.23
52719;BME280;38616;42.140;24.760;2022-10-16T08:41:56;100609.84;;;15.46;53.18
52719;BME280;38616;42.140;24.760;2022-10-16T08:49:02;100601.56;;;15.27;52.76
52719;BME280;38616;42.140;24.760;2022-10-16T08:51:31;100605.28;;;15.02;52.66
52719;BME280;38616;42.140;24.760;2022-10-16T08:53:58;100602.94;;;14.90;53.09
52719;BME280;38616;42.140;24.760;2022-10-16T08:56:25;100606.28;;;15.16;52.81
52719;BME280;38616;42.140;24.760;2022-10-16T08:58:52;100601.94;;;15.45;52.41
52719;BME280;38616;42.140;24.760;2022-10-16T09:01:20;100578.28;;;15.25;52.19
52719;BME280;38616;42.140;24.760;2022-10-16T09:03:58;100597.97;;;15.27;52.34
52719;BME280;38616;42.140;24.760;2022-10-16T09:14:35;100594.78;;;16.22;49.83
52719;BME280;38616;42.140;24.760;2022-10-16T09:17:37;100591.78;;;16.23;49.67
52719;BME280;38616;42.140;24.760;2022-10-16T09:25:31;100593.69;;;16.42;48.09
52719;BME280;38616;42.140;24.760;2022-10-16T09:27:57;100585.66;;;16.07;48.40
52719;BME280;38616;42.140;24.760;2022-10-16T09:30:26;100589.72;;;16.34;48.28
52719;BME280;38616;42.140;24.760;2022-10-16T09:32:53;100583.34;;;16.58;47.83
52719;BME280;38616;42.140;24.760;2022-10-16T09:35:27;100586.75;;;16.69;47.33
52719;BME280;38616;42.140;24.760;2022-10-16T09:37:56;100585.94;;;16.49;47.34
52719;BME280;38616;42.140;24.760;2022-10-16T09:40:33;100580.91;;;16.76;46.95
52719;BME280;38616;42.140;24.760;2022-10-16T09:45:38;100570.50;;;16.92;45.24
52719;BME280;38616;42.140;24.760;2022-10-16T09:48:12;100571.69;;;16.86;45.39
52719;BME280;38616;42.140;24.760;2022-10-16T09:50:38;100577.13;;;16.72;43.75
52719;BME280;38616;42.140;24.760;2022-10-16T09:53:13;100568.19;;;16.80;44.83
52719;BME280;38616;42.140;24.760;2022-10-16T09:55:50;100556.31;;;17.04;43.54
52719;BME280;38616;42.140;24.760;2022-10-16T09:58:15;100555.38;;;16.75;43.11
52719;BME280;38616;42.140;24.760;2022-10-16T10:00:42;100553.41;;;16.95;43.02
52719;BME280;38616;42.140;24.760;2022-10-16T10:03:39;100548.72;;;17.15;43.00
52719;BME280;38616;42.140;24.760;2022-10-16T10:16:48;100538.78;;;17.19;41.61
52719;BME280;38616;42.140;24.760;2022-10-16T10:21:41;100534.00;;;17.38;41.42
52719;BME280;38616;42.140;24.760;2022-10-16T10:24:18;100537.06;;;17.51;41.02
52719;BME280;38616;42.140;24.760;2022-10-16T10:26:51;100531.69;;;17.60;40.48
52719;BME280;38616;42.140;24.760;2022-10-16T10:32:45;100533.53;;;17.64;40.08
52719;BME280;38616;42.140;24.760;2022-10-16T10:35:19;100525.47;;;17.68;40.40
52719;BME280;38616;42.140;24.760;2022-10-16T10:46:49;100511.59;;;17.03;39.65
52719;BME280;38616;42.140;24.760;2022-10-16T10:52:13;100513.84;;;17.15;39.75
52719;BME280;38616;42.140;24.760;2022-10-16T11:05:45;100503.09;;;17.47;39.04
52719;BME280;38616;42.140;24.760;2022-10-16T11:08:35;100511.25;;;17.66;38.46
52719;BME280;38616;42.140;24.760;2022-10-16T11:14:01;100501.25;;;17.70;37.59
52719;BME280;38616;42.140;24.760;2022-10-16T11:16:32;100505.09;;;17.97;37.65
52719;BME280;38616;42.140;24.760;2022-10-16T11:19:13;100499.19;;;17.90;37.02
52719;BME280;38616;42.140;24.760;2022-10-16T11:21:55;100490.94;;;17.90;37.78
52719;BME280;38616;42.140;24.760;2022-10-16T11:24:24;100483.72;;;17.94;37.83
52719;BME280;38616;42.140;24.760;2022-10-16T11:27:00;100484.34;;;18.05;37.60
52719;BME280;38616;42.140;24.760;2022-10-16T11:29:30;100483.19;;;18.20;37.43
52719;BME280;38616;42.140;24.760;2022-10-16T11:32:00;100481.94;;;18.26;37.13
52719;BME280;38616;42.140;24.760;2022-10-16T11:34:35;100486.22;;;18.18;37.15
52719;BME280;38616;42.140;24.760;2022-10-16T11:37:38;100475.00;;;17.78;37.44
52719;BME280;38616;42.140;24.760;2022-10-16T11:42:51;100475.16;;;18.09;36.96
52719;BME280;38616;42.140;24.760;2022-10-16T11:45:34;100475.00;;;18.06;36.59
52719;BME280;38616;42.140;24.760;2022-10-16T11:51:03;100478.66;;;18.01;36.93
52719;BME280;38616;42.140;24.760;2022-10-16T11:53:44;100478.59;;;18.15;36.49
52719;BME280;38616;42.140;24.760;2022-10-16T11:56:18;100474.03;;;18.10;37.01
52719;BME280;38616;42.140;24.760;2022-10-16T11:58:57;100477.75;;;18.28;37.09
52719;BME280;38616;42.140;24.760;2022-10-16T12:04:33;100475.22;;;18.55;36.51
52719;BME280;38616;42.140;24.760;2022-10-16T12:07:06;100483.50;;;18.41;36.05
52719;BME280;38616;42.140;24.760;2022-10-16T12:09:37;100469.38;;;18.34;36.38
52719;BME280;38616;42.140;24.760;2022-10-16T12:12:04;100488.19;;;18.17;36.99
52719;BME280;38616;42.140;24.760;2022-10-16T12:16:58;100479.19;;;18.26;37.15
52719;BME280;38616;42.140;24.760;2022-10-16T12:19:27;100483.09;;;18.48;37.06
52719;BME280;38616;42.140;24.760;2022-10-16T12:21:58;100474.22;;;18.51;36.85
52719;BME280;38616;42.140;24.760;2022-10-16T12:24:39;100472.19;;;18.65;36.52
52719;BME280;38616;42.140;24.760;2022-10-16T12:27:30;100484.53;;;18.68;36.32
52719;BME280;38616;42.140;24.760;2022-10-16T12:29:58;100475.13;;;18.69;36.45
52719;BME280;38616;42.140;24.760;2022-10-16T12:34:53;100470.19;;;18.80;36.10
52719;BME280;38616;42.140;24.760;2022-10-16T12:37:30;100478.06;;;18.72;36.45
52719;BME280;38616;42.140;24.760;2022-10-16T12:39:57;100472.50;;;18.64;36.51
52719;BME280;38616;42.140;24.760;2022-10-16T12:44:53;100470.00;;;18.76;36.42
52719;BME280;38616;42.140;24.760;2022-10-16T12:47:47;100479.88;;;19.00;35.87
52719;BME280;38616;42.140;24.760;2022-10-16T12:50:36;100482.16;;;18.98;35.81
52719;BME280;38616;42.140;24.760;2022-10-16T12:53:04;100481.81;;;18.76;36.46
52719;BME280;38616;42.140;24.760;2022-10-16T12:56:28;100488.69;;;18.88;36.29
52719;BME280;38616;42.140;24.760;2022-10-16T13:08:03;100484.63;;;18.85;36.41
52719;BME280;38616;42.140;24.760;2022-10-16T13:15:57;100488.19;;;18.86;36.29
52719;BME280;38616;42.140;24.760;2022-10-16T13:24:03;100493.56;;;18.91;36.17
52719;BME280;38616;42.140;24.760;2022-10-16T13:27:07;100495.50;;;18.90;36.18
52719;BME280;38616;42.140;24.760;2022-10-16T13:29:30;100491.72;;;19.00;35.77
52719;BME280;38616;42.140;24.760;2022-10-16T13:31:55;100487.56;;;18.89;36.01
52719;BME280;38616;42.140;24.760;2022-10-16T13:34:22;100492.56;;;18.87;36.10
52719;BME280;38616;42.140;24.760;2022-10-16T13:36:49;100499.03;;;18.82;36.64
52719;BME280;38616;42.140;24.760;2022-10-16T13:39:24;100497.75;;;19.11;35.27
52719;BME280;38616;42.140;24.760;2022-10-16T13:42:03;100492.50;;;19.01;35.29
52719;BME280;38616;42.140;24.760;2022-10-16T13:44:35;100491.41;;;18.79;35.77
52719;BME280;38616;42.140;24.760;2022-10-16T13:47:02;100488.19;;;18.86;35.65
52719;BME280;38616;42.140;24.760;2022-10-16T13:49:28;100488.69;;;18.88;35.79
52719;BME280;38616;42.140;24.760;2022-10-16T13:51:58;100492.63;;;18.96;35.80
52719;BME280;38616;42.140;24.760;2022-10-16T13:54:25;100500.06;;;19.18;35.59
52719;BME280;38616;42.140;24.760;2022-10-16T13:56:52;100494.22;;;19.19;35.43
52719;BME280;38616;42.140;24.760;2022-10-16T13:59:37;100487.81;;;19.01;35.35
52719;BME280;38616;42.140;24.760;2022-10-16T14:02:26;100498.84;;;19.01;35.88
52719;BME280;38616;42.140;24.760;2022-10-16T14:04:53;100489.88;;;18.96;35.76
52719;BME280;38616;42.140;24.760;2022-10-16T14:07:28;100491.63;;;18.92;35.49
52719;BME280;38616;42.140;24.760;2022-10-16T14:09:54;100493.34;;;19.01;35.97
52719;BME280;38616;42.140;24.760;2022-10-16T14:12:21;100499.78;;;18.97;36.16
52719;BME280;38616;42.140;24.760;2022-10-16T14:14:50;100498.66;;;18.98;35.89
52719;BME280;38616;42.140;24.760;2022-10-16T14:17:21;100497.63;;;18.94;35.81
52719;BME280;38616;42.140;24.760;2022-10-16T14:19:50;100494.81;;;18.85;36.24
52719;BME280;38616;42.140;24.760;2022-10-16T14:22:35;100499.19;;;18.86;36.16
52719;BME280;38616;42.140;24.760;2022-10-16T14:25:02;100503.19;;;18.80;36.99
52719;BME280;38616;42.140;24.760;2022-10-16T14:27:35;100499.81;;;18.83;36.42
52719;BME280;38616;42.140;24.760;2022-10-16T14:30:18;100502.19;;;18.75;36.26
52719;BME280;38616;42.140;24.760;2022-10-16T14:33:02;100500.31;;;18.85;36.40
52719;BME280;38616;42.140;24.760;2022-10-16T14:35:38;100502.19;;;18.75;36.28
52719;BME280;38616;42.140;24.760;2022-10-16T14:38:06;100507.41;;;18.77;36.28
52719;BME280;38616;42.140;24.760;2022-10-16T14:40:47;100500.31;;;18.85;35.94
52719;BME280;38616;42.140;24.760;2022-10-16T14:43:29;100506.47;;;18.82;36.06
52719;BME280;38616;42.140;24.760;2022-10-16T14:45:56;100496.53;;;18.72;35.49